X  Sluiten METAR luchtvaart weer gegevens      KBWI Baltimore/Washington International Thurgood Marshall Airport
Temperatuur
88°F Temperatuur
48°F Dauwpunt
25% Vochtigheid



Wind
10 MPH
16 KM/U
4 M/S
9 KTS



320°
NW
Huidig weer

Wat bewolking Wat bewolking
Luchtdruk 1009.82 (hPa) - 29.82 (inHg)
Zicht 10 (mijl) - 16.1 (km)
Vliegveld
Vliegveld code KBWI

Locatie : Baltimore/Washington International Thurgood Marshall Airport
Afstand: 10 (mi)

Metar:
KBWI 242254Z 32009KT 10SM FEW060 FEW085 FEW250 31/09 A2982 RMK AO2 SLP097 T03060089

Tijd: 06-24-2024 6:54 pm EDT